Time;durP1;ratioP1;P1;durP2;ratioP2;P2;SDS_P1;SDS_P2;PMS_P1;PMS_P2;Temp;Humidity;BMP_temperature;BMP_pressure;BME280_temperature;BME280_humidity;BME280_pressure;Samples;Min_cycle;Max_cycle;Signal;HPM_P1;HPM_P2
2023/06/07 00:04:00;;;;;;;9.30;6.80;;;;;;;16.03;62.13;99966.51;219014;1256;140525;-71
2023/06/07 00:09:03;;;;;;;13.90;7.60;;;;;;;15.97;62.30;99971.91;218860;1254;140332;-72
2023/06/07 00:14:07;;;;;;;9.30;8.20;;;;;;;15.90;62.71;99969.80;218124;1256;140025;-71
2023/06/07 00:19:11;;;;;;;14.70;8.80;;;;;;;15.86;62.86;99967.60;218592;1256;140680;-71
2023/06/07 00:24:17;;;;;;;8.80;8.00;;;;;;;15.79;63.14;99968.90;219364;1254;140186;-69
2023/06/07 00:29:22;;;;;;;8.50;7.40;;;;;;;15.72;63.30;99967.21;219967;1254;139817;-67
2023/06/07 00:34:27;;;;;;;9.70;8.20;;;;;;;15.59;63.49;99971.92;219315;1254;140028;-68
2023/06/07 00:39:30;;;;;;;11.40;8.70;;;;;;;15.53;63.96;99961.57;218705;1257;141158;-70
2023/06/07 00:44:33;;;;;;;7.70;6.70;;;;;;;15.52;64.25;99965.70;219721;1257;139570;-71
2023/06/07 00:49:36;;;;;;;8.30;7.40;;;;;;;15.43;64.20;99964.30;218458;1259;140310;-71
2023/06/07 00:54:41;;;;;;;10.10;8.60;;;;;;;15.26;64.41;99959.42;218467;1257;140771;-72
2023/06/07 00:59:47;;;;;;;13.80;8.60;;;;;;;15.17;64.68;99956.63;218697;1256;139691;-73
2023/06/07 01:04:52;;;;;;;12.90;8.40;;;;;;;15.10;64.87;99953.91;218669;1255;139974;-70
2023/06/07 01:09:55;;;;;;;9.60;8.40;;;;;;;15.03;65.31;99956.97;218136;1256;142300;-71
2023/06/07 01:14:58;;;;;;;10.70;9.20;;;;;;;14.96;65.13;99955.38;218305;1257;139536;-72
2023/06/07 01:20:04;;;;;;;12.20;8.70;;;;;;;14.89;65.43;99956.35;218389;1257;139570;-73
2023/06/07 01:25:12;;;;;;;15.60;8.00;;;;;;;14.80;65.50;99960.19;218323;1259;140816;-74
2023/06/07 01:30:15;;;;;;;9.80;8.80;;;;;;;14.69;65.85;99956.77;218239;1258;140075;-74
2023/06/07 01:35:19;;;;;;;11.10;7.90;;;;;;;14.60;66.03;99957.30;218051;1259;140777;-69
2023/06/07 01:40:24;;;;;;;13.60;8.20;;;;;;;14.44;66.38;99950.81;218377;1257;140415;-69
2023/06/07 01:45:28;;;;;;;9.40;7.50;;;;;;;14.32;66.79;99951.50;218728;1259;161371;-70
2023/06/07 01:50:31;;;;;;;7.70;6.90;;;;;;;14.19;67.04;99947.66;218317;1258;140241;-71
2023/06/07 01:55:36;;;;;;;11.80;9.50;;;;;;;14.07;67.46;99945.66;218952;1255;141486;-72
2023/06/07 02:01:18;;;;;;;10.90;9.70;;;;;;;14.06;67.66;99943.99;218547;1255;140296;-72
2023/06/07 02:06:31;;;;;;;9.70;8.70;;;;;;;14.06;67.83;99940.17;218320;1257;140009;-70
2023/06/07 02:11:34;;;;;;;15.90;9.20;;;;;;;13.99;67.94;99935.19;219039;1257;140874;-72
2023/06/07 02:16:38;;;;;;;9.80;8.80;;;;;;;13.97;68.05;99930.81;220584;1255;140286;-74
2023/06/07 02:21:41;;;;;;;9.00;8.20;;;;;;;13.90;68.04;99929.50;219994;1255;140490;-74
2023/06/07 02:26:43;;;;;;;10.60;9.40;;;;;;;13.85;68.30;99930.15;219085;1254;140376;-72
2023/06/07 02:31:50;;;;;;;9.30;8.50;;;;;;;13.83;68.40;99927.16;219388;1257;140434;-69
2023/06/07 02:36:53;;;;;;;18.30;9.90;;;;;;;13.76;68.37;99924.85;218772;1257;139838;-70
2023/06/07 02:41:57;;;;;;;18.30;10.10;;;;;;;13.70;68.41;99927.05;219471;1254;140915;-70
2023/06/07 02:47:00;;;;;;;11.20;9.00;;;;;;;13.66;68.37;99930.42;218555;1254;151707;-71
2023/06/07 02:52:04;;;;;;;16.50;10.40;;;;;;;13.57;68.50;99928.96;218082;1255;140585;-68
2023/06/07 02:57:08;;;;;;;10.40;8.50;;;;;;;13.49;68.63;99927.48;219063;1257;140219;-72
2023/06/07 03:02:12;;;;;;;10.10;9.20;;;;;;;13.43;68.72;99933.36;218393;1258;139887;-70
2023/06/07 03:07:15;;;;;;;16.70;10.70;;;;;;;13.43;69.23;99930.14;218118;1256;139752;-68
2023/06/07 03:12:18;;;;;;;12.50;10.50;;;;;;;13.48;69.27;99939.50;218153;1257;139797;-69
2023/06/07 03:17:20;;;;;;;24.00;10.80;;;;;;;13.54;69.68;99935.79;218027;1257;140273;-72
2023/06/07 03:22:22;;;;;;;10.80;9.30;;;;;;;13.57;69.36;99936.79;217739;1254;142037;-71
2023/06/07 03:27:24;;;;;;;13.10;12.00;;;;;;;13.53;69.75;99938.77;218007;1258;139832;-71
2023/06/07 03:32:27;;;;;;;12.80;11.60;;;;;;;13.59;70.24;99940.45;217971;1258;140567;-80
2023/06/07 03:37:30;;;;;;;12.90;11.30;;;;;;;13.70;70.35;99943.27;218018;1255;140107;-77
2023/06/07 03:42:33;;;;;;;10.70;9.20;;;;;;;13.79;70.41;99945.88;218067;1254;140528;-73
2023/06/07 03:47:37;;;;;;;13.40;11.50;;;;;;;13.80;70.63;99943.86;218057;1254;139845;-75
2023/06/07 03:52:40;;;;;;;12.60;11.20;;;;;;;13.90;71.17;99948.52;217876;1256;140297;-74
2023/06/07 03:57:43;;;;;;;14.60;12.90;;;;;;;14.06;71.49;99953.80;218141;1257;141199;-78
2023/06/07 04:02:45;;;;;;;14.20;12.70;;;;;;;14.27;71.80;99951.55;218091;1257;140150;-75
2023/06/07 04:07:49;;;;;;;16.20;12.40;;;;;;;14.49;71.55;99949.30;218489;1254;140274;-73
2023/06/07 04:12:52;;;;;;;14.00;12.20;;;;;;;14.69;71.53;99950.45;218960;1257;140115;-75
2023/06/07 04:17:54;;;;;;;15.20;12.60;;;;;;;14.92;71.53;99951.70;220013;1259;142521;-78
2023/06/07 04:22:57;;;;;;;12.10;10.70;;;;;;;15.19;71.97;99940.70;220142;1254;140664;-73
2023/06/07 04:28:00;;;;;;;11.70;10.20;;;;;;;15.48;71.99;99942.36;220752;1254;140237;-73
2023/06/07 04:33:09;;;;;;;11.00;10.00;;;;;;;15.77;71.92;99944.27;218833;1255;139803;-75
2023/06/07 04:38:15;;;;;;;13.70;12.20;;;;;;;16.10;72.01;99948.94;218706;1257;140188;-74
2023/06/07 04:43:19;;;;;;;12.70;10.80;;;;;;;16.46;71.98;99945.65;218289;1257;140260;-73
2023/06/07 04:48:25;;;;;;;11.30;10.30;;;;;;;16.81;71.63;99951.06;218659;1254;140209;-70
2023/06/07 04:53:41;;;;;;;17.00;13.10;;;;;;;17.23;71.33;99951.65;218152;1255;141038;-72
2023/06/07 04:58:46;;;;;;;15.70;10.80;;;;;;;17.83;70.71;99951.24;217997;1258;140666;-72
2023/06/07 05:03:50;;;;;;;15.10;11.10;;;;;;;18.40;69.74;99948.77;218149;1259;140010;-71
2023/06/07 05:08:55;;;;;;;13.50;9.40;;;;;;;19.43;68.07;99945.57;217874;1257;140098;-71
2023/06/07 05:13:59;;;;;;;11.00;8.50;;;;;;;21.49;65.48;99947.55;218178;1254;139875;-72
2023/06/07 05:19:03;;;;;;;10.50;8.00;;;;;;;24.97;60.31;99941.97;218178;1259;140501;-73
2023/06/07 05:24:07;;;;;;;31.10;9.10;;;;;;;28.26;54.76;99944.95;218509;1255;139540;-73
2023/06/07 05:29:09;;;;;;;8.50;6.60;;;;;;;31.09;49.17;99947.45;218001;1259;139572;-78
2023/06/07 05:34:11;;;;;;;5.00;4.50;;;;;;;33.58;43.98;99949.28;218129;1259;138701;-74
2023/06/07 05:39:13;;;;;;;3.90;3.50;;;;;;;35.56;39.28;99960.80;218677;1256;138817;-70
2023/06/07 05:44:16;;;;;;;7.50;4.00;;;;;;;37.27;35.68;99956.13;218615;1257;138988;-73
2023/06/07 05:49:23;;;;;;;3.70;3.10;;;;;;;38.76;32.67;99957.99;218909;1255;138873;-70
2023/06/07 05:54:25;;;;;;;;;;;;;;;39.87;29.61;99960.23;217737;1259;139229;-70
2023/06/07 05:59:31;;;;;;;9.90;3.90;;;;;;;40.65;28.25;99958.08;218202;1259;126444;-71
2023/06/07 06:04:34;;;;;;;5.30;4.00;;;;;;;41.41;26.16;99959.94;217907;1257;140012;-73
2023/06/07 06:09:37;;;;;;;5.20;3.30;;;;;;;41.57;24.88;99961.70;217843;1257;138934;-71
2023/06/07 06:14:40;;;;;;;5.20;3.50;;;;;;;41.69;24.05;99962.81;217904;1258;139588;-71
2023/06/07 06:19:42;;;;;;;7.60;3.60;;;;;;;39.79;23.96;99969.45;217846;1258;138851;-71
2023/06/07 06:24:45;;;;;;;6.60;4.10;;;;;;;38.36;24.31;99972.22;217850;1254;138889;-72
2023/06/07 06:29:47;;;;;;;;;;;;;;;37.77;24.85;99964.98;217938;1255;140545;-71
2023/06/07 06:34:49;;;;;;;5.30;2.80;;;;;;;37.15;24.99;99968.95;218067;1260;125370;-71
2023/06/07 06:39:51;;;;;;;5.60;3.20;;;;;;;38.30;24.60;99967.03;217787;1256;141752;-70
2023/06/07 06:44:54;;;;;;;3.00;2.60;;;;;;;39.30;23.76;99962.84;217506;1260;139341;-68
2023/06/07 06:49:59;;;;;;;6.90;2.90;;;;;;;39.96;22.59;99966.53;217722;1261;139673;-71
2023/06/07 06:55:01;;;;;;;11.50;3.40;;;;;;;40.50;21.84;99966.39;218941;1258;140216;-70
2023/06/07 07:00:06;;;;;;;3.00;2.80;;;;;;;40.94;21.40;99969.48;217712;1259;139017;-71
2023/06/07 07:05:09;;;;;;;10.90;2.90;;;;;;;41.26;20.77;99969.20;217513;1260;140565;-73
2023/06/07 07:10:13;;;;;;;3.40;2.80;;;;;;;41.64;20.73;99975.98;217977;1255;139078;-78
2023/06/07 07:15:15;;;;;;;;;;;;;;;41.89;20.07;99974.51;217301;1260;138966;-74
2023/06/07 07:20:18;;;;;;;3.20;3.00;;;;;;;42.05;19.74;99977.14;218270;1257;126389;-73
2023/06/07 07:25:21;;;;;;;7.20;2.40;;;;;;;41.57;19.83;99981.52;217688;1260;427029;-74
2023/06/07 07:30:25;;;;;;;2.90;2.70;;;;;;;40.75;19.86;99974.36;218265;1259;142062;-73
2023/06/07 07:35:27;;;;;;;13.90;2.90;;;;;;;39.90;20.18;99969.73;217754;1254;139065;-76
2023/06/07 07:40:31;;;;;;;5.40;2.60;;;;;;;39.16;19.94;99970.30;219486;1254;139146;-72
2023/06/07 07:45:33;;;;;;;4.90;3.20;;;;;;;38.52;20.11;99966.44;218750;1254;205828;-69
2023/06/07 07:50:38;;;;;;;2.20;2.10;;;;;;;37.84;20.48;99958.16;217607;1254;139457;-67
2023/06/07 07:55:41;;;;;;;2.60;2.30;;;;;;;37.27;20.95;99962.41;217972;1254;140293;-69
2023/06/07 08:00:45;;;;;;;;;;;;;;;36.78;21.34;99964.98;218274;1257;139431;-70
2023/06/07 08:05:49;;;;;;;40.10;8.20;;;;;;;36.13;21.27;99965.89;219997;1254;126666;-72
2023/06/07 08:10:52;;;;;;;4.90;2.50;;;;;;;35.77;21.55;99960.36;218876;1254;139799;-72
2023/06/07 08:15:55;;;;;;;6.00;3.20;;;;;;;35.30;21.73;99958.16;217891;1254;139709;-68
2023/06/07 08:20:59;;;;;;;8.50;3.30;;;;;;;34.92;22.46;99962.00;217664;1256;140089;-74
2023/06/07 08:26:03;;;;;;;10.60;2.60;;;;;;;34.59;22.59;99959.13;219163;1254;230592;-70
2023/06/07 08:31:06;;;;;;;4.10;2.70;;;;;;;34.31;23.05;99958.48;220572;1254;139466;-69
2023/06/07 08:36:10;;;;;;;3.40;3.10;;;;;;;34.13;22.81;99956.02;217964;1260;139452;-68
2023/06/07 08:41:15;;;;;;;3.00;2.80;;;;;;;33.73;23.06;99960.27;217805;1254;139842;-72
2023/06/07 08:46:20;;;;;;;4.90;3.00;;;;;;;33.40;23.19;99960.41;218107;1259;139995;-73
2023/06/07 08:51:25;;;;;;;10.00;3.10;;;;;;;33.38;23.51;99958.81;218900;1254;139380;-71
2023/06/07 08:56:31;;;;;;;5.60;2.80;;;;;;;33.42;23.61;99955.70;218330;1254;142560;-71
2023/06/07 09:01:37;;;;;;;4.50;3.20;;;;;;;33.35;23.74;99951.45;218177;1254;139224;-78
2023/06/07 09:06:40;;;;;;;6.40;3.40;;;;;;;33.36;23.61;99946.48;218169;1254;139580;-71
2023/06/07 09:11:43;;;;;;;6.30;3.50;;;;;;;33.20;23.54;99942.48;217914;1254;139710;-72
2023/06/07 09:16:55;;;;;;;3.60;2.90;;;;;;;33.11;23.44;99941.36;218082;1254;139358;-72
2023/06/07 09:21:58;;;;;;;3.50;3.10;;;;;;;32.93;23.36;99938.76;218091;1258;140363;-72
2023/06/07 09:27:03;;;;;;;3.00;2.60;;;;;;;32.67;23.92;99939.34;218905;1255;139087;-71
2023/06/07 09:32:21;;;;;;;4.60;3.20;;;;;;;32.34;23.71;99951.91;218133;1254;139368;-71
2023/06/07 09:37:44;;;;;;;7.00;3.30;;;;;;;32.52;23.83;99940.91;218764;1254;139155;-71
2023/06/07 09:42:59;;;;;;;4.10;3.40;;;;;;;32.67;23.64;99938.88;218370;1254;140918;-73
2023/06/07 09:48:07;;;;;;;4.80;3.20;;;;;;;32.68;23.71;99939.91;218477;1259;140031;-72
2023/06/07 09:53:10;;;;;;;7.40;3.40;;;;;;;32.36;23.98;99939.33;218010;1257;140568;-73
2023/06/07 09:58:23;;;;;;;6.70;3.10;;;;;;;32.48;23.75;99934.00;218940;1256;139504;-72
2023/06/07 10:03:28;;;;;;;4.00;3.60;;;;;;;32.49;23.41;99934.81;219325;1254;140768;-74
2023/06/07 10:08:31;;;;;;;5.30;3.60;;;;;;;32.39;23.47;99933.19;219845;1254;138990;-78
2023/06/07 10:13:35;;;;;;;3.60;3.20;;;;;;;32.26;23.43;99920.42;218178;1257;140986;-75
2023/06/07 10:18:41;;;;;;;4.40;3.10;;;;;;;32.24;23.55;99915.27;218571;1254;138930;-74
2023/06/07 10:23:59;;;;;;;3.80;3.50;;;;;;;32.14;23.80;99916.07;218162;1254;139863;-72
2023/06/07 10:29:08;;;;;;;5.50;3.40;;;;;;;32.25;23.40;99913.16;218650;1254;138610;-73
2023/06/07 10:34:15;;;;;;;7.30;3.50;;;;;;;32.17;23.22;99923.38;218630;1254;138872;-77
2023/06/07 10:39:22;;;;;;;11.50;3.20;;;;;;;32.33;23.24;99911.14;218197;1254;139403;-80
2023/06/07 10:44:25;;;;;;;3.20;2.90;;;;;;;32.18;23.04;99904.23;218663;1254;139204;-80
2023/06/07 10:49:36;;;;;;;5.20;3.30;;;;;;;32.00;23.66;99899.84;218497;1259;139301;-72
2023/06/07 10:54:38;;;;;;;10.30;3.00;;;;;;;32.16;23.54;99896.09;218388;1258;138648;-76
2023/06/07 10:59:42;;;;;;;3.50;3.20;;;;;;;32.32;24.20;99886.05;218282;1254;140901;-73
2023/06/07 11:04:51;;;;;;;11.60;3.40;;;;;;;32.61;23.76;99887.08;218128;1259;138997;-76
2023/06/07 11:10:13;;;;;;;3.90;3.20;;;;;;;32.17;23.19;99891.77;218036;1258;138979;-76
2023/06/07 11:15:27;;;;;;;7.50;3.60;;;;;;;31.49;23.62;99891.16;218541;1254;139763;-74
2023/06/07 11:20:38;;;;;;;9.30;3.20;;;;;;;31.19;24.00;99887.68;218217;1259;139998;-71
2023/06/07 11:25:41;;;;;;;7.30;3.90;;;;;;;30.84;24.04;99886.46;218196;1257;139163;-73
2023/06/07 11:30:43;;;;;;;5.10;3.50;;;;;;;30.53;24.45;99885.27;218450;1254;138673;-77
2023/06/07 11:35:47;;;;;;;7.90;3.10;;;;;;;30.28;24.82;99882.26;218350;1254;138778;-69
2023/06/07 11:40:50;;;;;;;6.20;3.30;;;;;;;30.09;24.80;99881.11;218122;1257;140046;-71
2023/06/07 11:45:56;;;;;;;3.50;3.20;;;;;;;29.98;25.17;99887.91;218753;1254;138928;-72
2023/06/07 11:51:00;;;;;;;17.00;4.00;;;;;;;29.60;25.68;99879.79;218568;1254;139504;-71
2023/06/07 11:56:03;;;;;;;7.50;3.80;;;;;;;29.33;25.95;99879.92;218575;1255;139037;-70
2023/06/07 12:01:06;;;;;;;4.70;3.30;;;;;;;29.36;26.31;99882.52;220394;1254;139409;-74
2023/06/07 12:06:10;;;;;;;4.60;3.30;;;;;;;29.88;26.48;99874.52;219125;1254;138838;-71
2023/06/07 12:11:13;;;;;;;4.50;2.80;;;;;;;30.41;26.21;99864.69;220347;1254;139053;-74
2023/06/07 12:16:25;;;;;;;4.60;3.90;;;;;;;30.85;26.56;99861.16;218570;1258;138994;-70
2023/06/07 12:21:30;;;;;;;6.40;3.40;;;;;;;31.21;25.84;99865.06;218767;1254;139018;-74
2023/06/07 12:26:36;;;;;;;8.50;3.50;;;;;;;30.93;25.52;99861.05;217845;1259;138885;-71
2023/06/07 12:31:42;;;;;;;8.30;2.80;;;;;;;30.63;25.78;99854.80;218007;1254;140218;-72
2023/06/07 12:36:48;;;;;;;4.70;3.60;;;;;;;30.83;26.22;99850.98;218033;1254;138973;-71
2023/06/07 12:41:52;;;;;;;5.00;3.30;;;;;;;31.10;26.21;99852.31;218365;1257;139380;-73
2023/06/07 12:46:55;;;;;;;9.10;3.60;;;;;;;30.97;25.77;99852.87;218178;1254;140656;-70
2023/06/07 12:51:57;;;;;;;5.30;3.50;;;;;;;30.57;26.02;99847.46;218745;1254;138960;-71
2023/06/07 12:57:01;;;;;;;3.60;3.30;;;;;;;30.42;26.16;99847.48;219166;1257;139731;-66
2023/06/07 13:02:05;;;;;;;4.10;3.60;;;;;;;30.69;25.96;99835.42;218361;1254;138874;-69
2023/06/07 13:07:11;;;;;;;12.50;2.90;;;;;;;30.89;25.75;99832.68;218211;1256;139975;-67
2023/06/07 13:12:15;;;;;;;3.10;2.80;;;;;;;30.61;25.98;99832.19;218480;1259;139791;-68
2023/06/07 13:17:24;;;;;;;3.30;2.90;;;;;;;30.12;26.14;99831.98;218098;1259;139098;-79
2023/06/07 13:22:32;;;;;;;3.60;3.30;;;;;;;29.58;26.41;99828.48;218288;1258;138981;-71
2023/06/07 13:27:37;;;;;;;3.20;2.70;;;;;;;29.32;26.93;99827.28;218387;1254;138901;-71
2023/06/07 13:32:41;;;;;;;3.40;3.10;;;;;;;29.28;26.87;99818.91;218125;1257;139340;-71
2023/06/07 13:37:46;;;;;;;5.50;2.70;;;;;;;29.41;27.21;99812.42;218257;1256;140049;-72
2023/06/07 13:42:52;;;;;;;3.50;3.20;;;;;;;29.68;26.79;99801.80;218970;1256;139414;-68
2023/06/07 13:47:55;;;;;;;3.80;3.40;;;;;;;29.85;27.28;99795.30;219165;1254;140360;-71
2023/06/07 13:53:00;;;;;;;5.20;3.50;;;;;;;30.05;26.53;99795.39;218411;1257;139157;-70
2023/06/07 13:58:05;;;;;;;5.60;3.30;;;;;;;29.79;26.59;99798.71;219457;1255;138818;-70
2023/06/07 14:03:09;;;;;;;5.40;3.40;;;;;;;29.33;26.46;99794.98;220771;1254;139191;-71
2023/06/07 14:08:13;;;;;;;3.40;3.20;;;;;;;29.06;26.70;99792.30;220179;1254;139219;-71
2023/06/07 14:13:17;;;;;;;4.70;3.50;;;;;;;29.08;26.17;99788.11;218400;1258;139760;-71
2023/06/07 14:18:23;;;;;;;;;;;;;;;29.12;26.16;99779.52;218394;1256;138658;-69
2023/06/07 14:23:28;;;;;;;3.90;3.40;;;;;;;29.07;26.37;99775.00;219592;1257;125452;-70
2023/06/07 14:28:32;;;;;;;4.00;3.40;;;;;;;29.24;26.70;99777.73;218237;1254;140001;-70
2023/06/07 14:33:37;;;;;;;24.70;5.00;;;;;;;29.45;27.05;99775.71;218676;1254;138663;-71
2023/06/07 14:38:44;;;;;;;11.20;3.40;;;;;;;29.57;26.76;99768.70;218190;1254;140640;-72
2023/06/07 14:43:47;;;;;;;6.50;2.80;;;;;;;29.68;27.19;99772.83;218503;1254;139250;-72
2023/06/07 14:48:53;;;;;;;8.60;3.60;;;;;;;29.81;26.89;99776.70;218817;1254;139335;-72
2023/06/07 14:53:58;;;;;;;5.50;3.60;;;;;;;29.53;27.02;99778.23;218658;1254;139742;-71
2023/06/07 14:59:12;;;;;;;2.90;2.70;;;;;;;29.06;27.13;99775.54;218381;1254;139365;-73
2023/06/07 15:04:17;;;;;;;3.10;2.90;;;;;;;28.94;27.31;99771.57;218149;1259;139786;-71
2023/06/07 15:09:24;;;;;;;3.90;3.60;;;;;;;28.78;27.43;99769.98;218188;1257;138602;-70
2023/06/07 15:14:28;;;;;;;;;;;;;;;28.63;27.63;99768.91;218436;1256;139379;-71
2023/06/07 15:19:32;;;;;;;135.40;14.70;;;;;;;28.53;27.79;99763.88;218760;1254;125756;-72
2023/06/07 15:24:36;;;;;;;25.60;5.80;;;;;;;28.62;27.56;99765.54;218434;1255;139293;-72
2023/06/07 15:29:40;;;;;;;4.90;3.80;;;;;;;28.74;27.44;99764.70;218463;1256;139271;-72
2023/06/07 15:34:45;;;;;;;24.70;6.00;;;;;;;28.81;27.37;99767.87;218990;1254;139361;-71
2023/06/07 15:39:49;;;;;;;8.60;4.20;;;;;;;28.75;27.42;99769.84;220505;1254;140245;-71
2023/06/07 15:44:51;;;;;;;5.00;3.50;;;;;;;28.63;27.60;99773.31;218947;1254;141231;-70
2023/06/07 15:49:55;;;;;;;7.10;3.80;;;;;;;28.49;27.89;99772.41;220755;1256;140578;-68
2023/06/07 15:54:57;;;;;;;5.30;3.70;;;;;;;28.35;28.25;99776.06;220632;1256;139925;-67
2023/06/07 15:59:59;;;;;;;18.70;4.60;;;;;;;28.24;28.34;99773.48;219470;1254;139545;-66
2023/06/07 16:05:03;;;;;;;3.70;3.40;;;;;;;28.15;28.66;99768.83;218126;1254;139145;-68
2023/06/07 16:10:07;;;;;;;9.30;3.70;;;;;;;28.01;28.59;99765.66;218779;1256;139653;-67
2023/06/07 16:15:10;;;;;;;7.40;4.70;;;;;;;27.90;28.89;99770.34;218615;1254;138769;-69
2023/06/07 16:20:15;;;;;;;4.70;4.30;;;;;;;27.81;29.60;99769.48;218825;1256;139284;-72
2023/06/07 16:25:18;;;;;;;5.20;3.80;;;;;;;27.76;29.18;99774.11;218381;1254;140345;-67
2023/06/07 16:30:25;;;;;;;8.00;3.90;;;;;;;27.78;29.26;99774.73;217775;1254;139727;-66
2023/06/07 16:35:28;;;;;;;8.00;3.40;;;;;;;27.81;29.96;99774.77;218740;1254;139455;-68
2023/06/07 16:40:31;;;;;;;6.20;4.60;;;;;;;27.83;29.55;99773.68;218189;1256;139947;-67
2023/06/07 16:45:34;;;;;;;11.40;5.20;;;;;;;27.75;30.44;99781.77;217730;1254;138748;-70
2023/06/07 16:50:41;;;;;;;4.30;4.00;;;;;;;27.45;31.35;99783.27;218034;1254;139741;-68
2023/06/07 16:55:45;;;;;;;7.20;4.40;;;;;;;27.07;32.20;99788.29;218065;1254;140297;-69
2023/06/07 17:00:49;;;;;;;6.20;4.00;;;;;;;26.61;32.61;99789.44;218282;1255;139303;-70
2023/06/07 17:05:55;;;;;;;4.50;4.00;;;;;;;26.23;33.36;99799.00;217948;1254;139298;-67
2023/06/07 17:11:01;;;;;;;4.70;4.20;;;;;;;25.81;33.74;99810.67;218390;1254;140583;-67
2023/06/07 17:16:08;;;;;;;5.90;4.00;;;;;;;25.37;34.05;99822.63;218044;1258;139101;-66
2023/06/07 17:21:14;;;;;;;7.50;4.70;;;;;;;24.96;34.71;99823.99;219359;1254;139094;-67
2023/06/07 17:26:17;;;;;;;8.40;3.90;;;;;;;24.55;34.97;99826.29;218911;1256;140169;-67
2023/06/07 17:31:22;;;;;;;4.00;3.20;;;;;;;24.20;35.73;99827.83;218234;1257;140049;-70
2023/06/07 17:36:30;;;;;;;6.40;3.70;;;;;;;24.02;36.39;99831.69;219243;1258;140125;-68
2023/06/07 17:41:45;;;;;;;10.00;4.70;;;;;;;23.92;36.36;99838.44;219696;1258;138780;-67
2023/06/07 17:46:47;;;;;;;5.70;4.00;;;;;;;23.80;36.93;99840.53;219578;1259;139409;-69
2023/06/07 17:51:52;;;;;;;7.30;4.00;;;;;;;23.62;37.59;99844.86;220414;1255;139612;-67
2023/06/07 17:56:54;;;;;;;5.70;3.90;;;;;;;23.55;38.10;99842.84;219004;1255;139929;-66
2023/06/07 18:01:57;;;;;;;7.00;4.40;;;;;;;23.48;38.83;99844.77;218815;1254;139042;-68
2023/06/07 18:07:02;;;;;;;4.30;4.00;;;;;;;23.52;39.46;99850.64;218457;1256;139339;-67
2023/06/07 18:12:11;;;;;;;4.10;3.70;;;;;;;23.47;39.90;99849.60;218058;1257;139474;-67
2023/06/07 18:17:17;;;;;;;5.80;4.60;;;;;;;23.28;40.36;99853.45;217951;1254;138998;-68
2023/06/07 18:22:21;;;;;;;4.60;4.20;;;;;;;23.11;40.88;99846.43;218878;1254;139200;-69
2023/06/07 18:27:24;;;;;;;10.30;3.90;;;;;;;22.98;41.39;99851.10;218511;1257;139109;-69
2023/06/07 18:32:29;;;;;;;4.50;4.10;;;;;;;22.84;42.07;99847.89;218100;1258;139790;-71
2023/06/07 18:37:35;;;;;;;;;;;;;;;22.64;42.71;99850.09;218197;1257;138874;-70
2023/06/07 18:42:39;;;;;;;5.30;4.80;;;;;;;22.34;43.26;99850.08;218466;1257;125356;-66
2023/06/07 18:47:42;;;;;;;6.50;4.00;;;;;;;22.21;44.15;99848.14;218426;1255;139027;-67
2023/06/07 18:52:50;;;;;;;7.20;4.20;;;;;;;22.14;44.68;99852.79;219214;1254;138805;-65
2023/06/07 18:57:58;;;;;;;42.50;6.10;;;;;;;22.07;45.14;99861.83;218301;1257;139490;-77
2023/06/07 19:03:05;;;;;;;6.10;4.10;;;;;;;21.95;45.82;99870.73;218725;1254;139181;-68
2023/06/07 19:08:10;;;;;;;6.40;4.90;;;;;;;21.76;46.30;99872.33;219068;1257;140078;-80
2023/06/07 19:13:20;;;;;;;8.30;5.20;;;;;;;21.62;46.79;99876.66;218304;1257;139027;-69
2023/06/07 19:18:23;;;;;;;7.20;4.40;;;;;;;21.46;47.01;99876.55;220375;1254;139386;-69
2023/06/07 19:23:27;;;;;;;8.20;4.30;;;;;;;21.29;47.44;99878.81;217295;1255;857274;-71
2023/06/07 19:28:33;;;;;;;6.30;4.90;;;;;;;21.12;47.95;99883.71;218517;1257;140067;-69
2023/06/07 19:33:37;;;;;;;8.40;5.00;;;;;;;20.94;48.52;99883.74;220858;1254;139837;-71
2023/06/07 19:38:43;;;;;;;18.40;5.90;;;;;;;20.75;48.82;99890.48;220695;1258;141134;-67
2023/06/07 19:43:47;;;;;;;9.30;5.80;;;;;;;20.54;49.26;99892.85;220709;1257;139306;-67
2023/06/07 19:48:50;;;;;;;6.50;4.80;;;;;;;20.34;49.94;99896.36;219921;1257;138737;-67
2023/06/07 19:53:56;;;;;;;9.90;4.60;;;;;;;20.13;50.27;99901.48;219201;1257;141517;-70
2023/06/07 19:59:00;;;;;;;16.40;5.80;;;;;;;19.90;50.79;99899.98;218140;1259;139238;-71
2023/06/07 20:04:04;;;;;;;36.70;8.10;;;;;;;19.69;51.39;99897.77;218967;1256;139985;-68
2023/06/07 20:09:08;;;;;;;27.10;9.20;;;;;;;19.45;51.73;99902.88;219472;1256;140513;-71
2023/06/07 20:14:13;;;;;;;24.50;7.60;;;;;;;19.16;52.28;99897.70;218639;1256;139854;-70
2023/06/07 20:19:16;;;;;;;22.40;7.20;;;;;;;18.96;52.76;99904.81;218393;1257;139158;-74
2023/06/07 20:24:20;;;;;;;15.40;6.90;;;;;;;18.72;53.50;99911.91;217959;1258;138911;-78
2023/06/07 20:29:24;;;;;;;19.30;6.90;;;;;;;18.52;54.00;99912.40;218458;1258;141126;-69
2023/06/07 20:34:28;;;;;;;16.90;6.80;;;;;;;18.28;54.71;99910.96;218809;1254;139980;-72
2023/06/07 20:39:31;;;;;;;14.30;6.20;;;;;;;18.15;55.25;99914.55;217924;1257;140342;-71
2023/06/07 20:44:35;;;;;;;9.90;5.70;;;;;;;17.92;55.49;99915.67;218023;1254;139446;-67
2023/06/07 20:49:57;;;;;;;13.80;5.70;;;;;;;17.71;56.10;99909.13;217962;1257;141133;-68
2023/06/07 20:55:02;;;;;;;8.40;6.00;;;;;;;17.58;56.53;99912.89;218023;1257;139631;-68
2023/06/07 21:00:07;;;;;;;6.80;6.20;;;;;;;17.40;56.92;99911.98;218365;1258;140632;-67
2023/06/07 21:05:14;;;;;;;13.90;6.00;;;;;;;17.28;57.46;99905.36;219069;1257;139996;-69
2023/06/07 21:10:18;;;;;;;10.20;6.60;;;;;;;17.11;57.81;99911.22;218448;1257;139675;-68
2023/06/07 21:15:22;;;;;;;26.50;7.80;;;;;;;16.87;58.28;99909.92;219289;1258;139580;-67
2023/06/07 21:20:27;;;;;;;12.10;6.20;;;;;;;16.62;58.78;99910.46;218242;1257;139372;-72
2023/06/07 21:25:31;;;;;;;11.90;5.80;;;;;;;16.50;59.42;99907.71;219277;1257;139156;-73
2023/06/07 21:30:35;;;;;;;39.40;9.20;;;;;;;16.32;59.79;99913.20;218226;1257;140657;-76
2023/06/07 21:35:38;;;;;;;34.60;8.80;;;;;;;16.14;60.14;99909.10;220030;1256;140015;-73
2023/06/07 21:40:42;;;;;;;38.10;10.00;;;;;;;16.06;60.56;99906.39;218605;1257;140837;-72
2023/06/07 21:45:50;;;;;;;48.20;10.30;;;;;;;15.99;60.74;99907.39;219436;1256;140939;-68
2023/06/07 21:50:53;;;;;;;;;;;;;;;15.81;61.13;99914.03;219048;1257;140545;-67
2023/06/07 21:55:58;;;;;;;52.70;12.40;;;;;;;15.71;61.57;99909.70;218912;1257;130863;-70
2023/06/07 22:01:02;;;;;;;39.10;11.30;;;;;;;15.65;61.80;99908.00;218001;1259;140430;-71
2023/06/07 22:06:06;;;;;;;36.10;10.60;;;;;;;15.57;61.90;99907.33;218632;1257;141161;-75
2023/06/07 22:11:09;;;;;;;28.20;9.40;;;;;;;15.42;62.32;99911.64;217739;1256;226522;-71
2023/06/07 22:16:12;;;;;;;23.40;8.60;;;;;;;15.26;62.65;99913.46;218172;1257;140607;-75
2023/06/07 22:21:15;;;;;;;39.20;9.10;;;;;;;15.23;63.24;99909.09;218018;1257;141218;-75
2023/06/07 22:26:20;;;;;;;17.60;9.20;;;;;;;15.12;63.14;99911.92;217989;1259;140005;-77
2023/06/07 22:31:22;;;;;;;18.80;9.00;;;;;;;15.02;63.56;99911.91;218029;1259;140904;-76
2023/06/07 22:36:31;;;;;;;20.90;9.20;;;;;;;14.96;63.63;99913.55;217836;1257;139774;-76
2023/06/07 22:41:35;;;;;;;16.80;8.30;;;;;;;14.77;63.80;99921.36;218186;1257;142411;-75
2023/06/07 22:46:37;;;;;;;16.00;8.60;;;;;;;14.56;63.96;99924.37;218167;1257;140180;-72
2023/06/07 22:51:40;;;;;;;11.90;7.60;;;;;;;14.40;64.77;99924.69;218904;1257;140319;-75
2023/06/07 22:56:47;;;;;;;;;;;;;;;14.36;65.22;99921.65;217911;1257;140001;-78
2023/06/07 23:01:53;;;;;;;13.20;7.20;;;;;;;14.22;65.55;99923.55;218166;1257;127368;-71
2023/06/07 23:06:59;;;;;;;17.40;8.80;;;;;;;14.09;65.71;99921.98;218796;1257;141339;-73
2023/06/07 23:12:04;;;;;;;15.10;7.10;;;;;;;14.07;66.00;99927.64;219500;1257;140168;-71
2023/06/07 23:17:10;;;;;;;9.80;6.70;;;;;;;13.94;65.97;99928.80;218412;1260;141110;-71